createdAt,value
2022-09-27T00:01:22.585Z,100096.63
2022-09-27T00:03:49.709Z,100098.59
2022-09-27T00:06:20.782Z,100096.28
2022-09-27T00:08:59.425Z,100098.59
2022-09-27T00:11:26.672Z,100096.28
2022-09-27T00:13:55.263Z,100092.31
2022-09-27T00:16:23.281Z,100100.41
2022-09-27T00:18:50.349Z,100111.97
2022-09-27T00:21:17.326Z,100106.03
2022-09-27T00:23:44.517Z,100104.56
2022-09-27T00:26:12.895Z,100109.19
2022-09-27T00:28:39.921Z,100107.84
2022-09-27T00:31:15.211Z,100108.53
2022-09-27T00:33:42.202Z,100110.19
2022-09-27T00:36:10.442Z,100107.56
2022-09-27T00:38:37.306Z,100103.91
2022-09-27T00:41:04.786Z,100115.16
2022-09-27T00:43:44.031Z,100104.25
2022-09-27T00:46:11.518Z,100103.44
2022-09-27T00:48:39.140Z,100102.94
2022-09-27T00:51:07.832Z,100103.25
2022-09-27T00:53:37.086Z,100102.94
2022-09-27T00:56:08.907Z,100102.94
2022-09-27T00:58:38.734Z,100104.09
2022-09-27T01:01:08.389Z,100098.47
2022-09-27T01:03:41.441Z,100107.25
2022-09-27T01:06:09.649Z,100108.06
2022-09-27T01:08:36.596Z,100109.25
2022-09-27T01:11:15.519Z,100112.88
2022-09-27T01:14:09.317Z,100111.22
2022-09-27T01:16:47.149Z,100100.81
2022-09-27T01:19:16.872Z,100106.44
2022-09-27T01:21:43.917Z,100101.97
2022-09-27T01:24:32.577Z,100091.03
2022-09-27T01:26:59.520Z,100085.44
2022-09-27T01:29:36.030Z,100098.13
2022-09-27T01:32:05.907Z,100102.09
2022-09-27T01:34:39.728Z,100099.59
2022-09-27T01:37:09.569Z,100092.84
2022-09-27T01:39:54.919Z,100093.16
2022-09-27T01:42:26.519Z,100102.28
2022-09-27T01:45:10.982Z,100101.94
2022-09-27T01:47:45.858Z,100103.59
2022-09-27T01:50:19.678Z,100104.75
2022-09-27T01:52:55.868Z,100099.47
2022-09-27T01:55:25.608Z,100087.41
2022-09-27T01:58:02.086Z,100082.13
2022-09-27T02:00:29.528Z,100086.91
2022-09-27T02:03:19.899Z,100095.34
2022-09-27T02:06:13.472Z,100095.66
2022-09-27T02:09:17.120Z,100101.28
2022-09-27T02:11:56.192Z,100101.59
2022-09-27T02:14:29.193Z,100106.41
2022-09-27T02:17:00.574Z,100096.66
2022-09-27T02:19:27.470Z,100099.78
2022-09-27T02:21:57.188Z,100104.09
2022-09-27T02:24:30.612Z,100107.22
2022-09-27T02:27:02.363Z,100101.97
2022-09-27T02:29:34.699Z,100109.06
2022-09-27T02:32:01.728Z,100107.41
2022-09-27T02:34:30.684Z,100108.91
2022-09-27T02:36:57.731Z,100097.16
2022-09-27T02:39:25.087Z,100093.88
2022-09-27T02:41:52.553Z,100101.16
2022-09-27T02:44:21.542Z,100098.66
2022-09-27T02:47:07.043Z,100101.78
2022-09-27T02:49:56.398Z,100101.31
2022-09-27T02:52:43.793Z,100095.19
2022-09-27T02:55:29.094Z,100086.28
2022-09-27T02:58:17.424Z,100082.66
2022-09-27T03:00:59.615Z,100079.84
2022-09-27T03:03:26.452Z,100070.59
2022-09-27T03:05:56.259Z,100074.56
2022-09-27T03:08:23.600Z,100071.28
2022-09-27T03:10:50.831Z,100066.44
2022-09-27T03:13:17.672Z,100059.22
2022-09-27T03:15:44.849Z,100066.28
2022-09-27T03:18:11.739Z,100072.75
2022-09-27T03:20:39.022Z,100073.88
2022-09-27T03:23:06.106Z,100067.78
2022-09-27T03:25:33.078Z,100070.59
2022-09-27T03:27:59.970Z,100066.47
2022-09-27T03:30:27.045Z,100064.84
2022-09-27T03:32:54.028Z,100068.78
2022-09-27T03:35:21.008Z,100074.72
2022-09-27T03:37:48.287Z,100084.28
2022-09-27T03:40:15.320Z,100079.84
2022-09-27T03:42:46.159Z,100068.63
2022-09-27T03:45:15.982Z,100070.59
2022-09-27T03:47:42.887Z,100077.38
2022-09-27T03:50:10.915Z,100072.59
2022-09-27T03:52:38.304Z,100073.41
2022-09-27T03:55:05.920Z,100081.84
2022-09-27T03:57:32.913Z,100072.59
2022-09-27T04:00:00.220Z,100072.91
2022-09-27T04:02:28.012Z,100078.50
2022-09-27T04:05:02.951Z,100067.28
2022-09-27T04:07:31.447Z,100076.03
2022-09-27T04:09:58.463Z,100074.88
2022-09-27T04:12:25.345Z,100069.63
2022-09-27T04:14:57.804Z,100063.19
2022-09-27T04:17:26.107Z,100063.19
2022-09-27T04:19:53.051Z,100082.00
2022-09-27T04:22:19.962Z,100080.34
2022-09-27T04:24:47.012Z,100078.69
2022-09-27T04:27:13.794Z,100075.88
2022-09-27T04:29:43.418Z,100081.00
2022-09-27T04:32:10.282Z,100079.03
2022-09-27T04:35:03.070Z,100079.81
2022-09-27T04:37:29.989Z,100076.22
2022-09-27T04:39:56.942Z,100079.66
2022-09-27T04:42:23.948Z,100079.66
2022-09-27T04:44:58.244Z,100074.06
2022-09-27T04:47:25.276Z,100071.59
2022-09-27T04:49:52.290Z,100069.94
2022-09-27T04:52:19.239Z,100061.50
2022-09-27T04:54:46.142Z,100071.41
2022-09-27T04:57:13.185Z,100072.06
2022-09-27T04:59:40.955Z,100064.47
2022-09-27T05:02:07.696Z,100063.13
2022-09-27T05:04:34.696Z,100057.84
2022-09-27T05:07:01.753Z,100060.34
2022-09-27T05:09:28.817Z,100053.09
2022-09-27T05:11:56.116Z,100062.81
2022-09-27T05:14:23.106Z,100065.16
2022-09-27T05:16:50.093Z,100058.88
2022-09-27T05:19:17.248Z,100057.72
2022-09-27T05:21:44.214Z,100053.78
2022-09-27T05:24:11.104Z,100058.72
2022-09-27T05:26:38.073Z,100053.25
2022-09-27T05:29:05.033Z,100057.88
2022-09-27T05:31:32.187Z,100049.63
2022-09-27T05:33:59.050Z,100055.06
2022-09-27T05:36:25.924Z,100052.41
2022-09-27T05:38:53.947Z,100043.84
2022-09-27T05:41:20.898Z,100049.59
2022-09-27T05:43:47.619Z,100050.25
2022-09-27T05:46:14.524Z,100045.63
2022-09-27T05:48:41.463Z,100042.66
2022-09-27T05:51:08.587Z,100038.00
2022-09-27T05:53:35.487Z,100041.00
2022-09-27T05:56:03.983Z,100033.19
2022-09-27T05:58:30.826Z,100037.00
2022-09-27T06:00:57.721Z,100041.97
2022-09-27T06:03:24.719Z,100032.88
2022-09-27T06:05:51.861Z,100031.06
2022-09-27T06:08:20.687Z,100035.19
2022-09-27T06:10:48.448Z,100028.91
2022-09-27T06:13:16.211Z,100032.69
2022-09-27T06:15:43.958Z,100037.97
2022-09-27T06:18:13.059Z,100038.13
2022-09-27T06:20:40.455Z,100039.09
2022-09-27T06:23:12.040Z,100041.91
2022-09-27T06:25:39.698Z,100051.66
2022-09-27T06:28:07.154Z,100048.50
2022-09-27T06:30:34.147Z,100040.91
2022-09-27T06:33:02.038Z,100030.16
2022-09-27T06:35:29.977Z,100025.84
2022-09-27T06:37:56.879Z,100023.53
2022-09-27T06:40:27.538Z,100013.44
2022-09-27T06:42:54.679Z,100010.63
2022-09-27T06:45:21.334Z,100011.78
2022-09-27T06:47:48.376Z,100008.97
2022-09-27T06:50:15.617Z,100008.13
2022-09-27T06:52:49.257Z,100018.13
2022-09-27T06:55:20.272Z,100011.25
2022-09-27T06:58:07.916Z,100006.09
2022-09-27T07:00:35.849Z,100004.94
2022-09-27T07:03:04.018Z,100009.59
2022-09-27T07:05:31.515Z,100020.50
2022-09-27T07:07:58.917Z,100030.59
2022-09-27T07:10:26.772Z,100028.09
2022-09-27T07:12:56.319Z,100023.94
2022-09-27T07:15:23.642Z,100021.16
2022-09-27T07:18:00.333Z,100027.09
2022-09-27T07:20:27.704Z,100038.66
2022-09-27T07:22:54.686Z,100028.91
2022-09-27T07:25:22.929Z,100027.25
2022-09-27T07:27:50.183Z,100024.13
2022-09-27T07:30:17.454Z,100031.22
2022-09-27T07:32:44.605Z,100033.53
2022-09-27T07:35:22.740Z,100025.63
2022-09-27T07:37:49.762Z,100022.63
2022-09-27T07:40:16.975Z,100017.69
2022-09-27T07:42:43.591Z,100023.94
2022-09-27T07:45:12.933Z,100018.34
2022-09-27T07:47:42.236Z,100021.31
2022-09-27T07:50:12.583Z,100007.28
2022-09-27T07:52:40.188Z,100002.50
2022-09-27T07:55:07.333Z,100000.00
2022-09-27T07:57:34.557Z,99999.31
2022-09-27T08:00:01.215Z,100001.47
2022-09-27T08:02:27.856Z,99997.53
2022-09-27T08:05:05.340Z,99996.88
2022-09-27T08:07:33.071Z,99992.06
2022-09-27T08:09:59.900Z,99995.22
2022-09-27T08:12:26.523Z,99983.63
2022-09-27T08:15:01.624Z,99999.31
2022-09-27T08:17:34.288Z,99994.84
2022-09-27T08:20:05.894Z,99987.41
2022-09-27T08:22:32.536Z,99986.84
2022-09-27T08:25:09.858Z,99985.38
2022-09-27T08:27:36.916Z,99979.94
2022-09-27T08:30:04.128Z,99972.03
2022-09-27T08:32:31.022Z,99974.50
2022-09-27T08:35:09.723Z,99978.97
2022-09-27T08:37:36.296Z,99972.38
2022-09-27T08:40:03.433Z,99970.09
2022-09-27T08:42:33.130Z,99967.59
2022-09-27T08:45:11.217Z,99968.28
2022-09-27T08:47:43.955Z,99968.94
2022-09-27T08:50:19.343Z,99969.25
2022-09-27T08:52:55.241Z,99965.97
2022-09-27T08:55:39.135Z,99954.56
2022-09-27T08:58:13.535Z,99962.16
2022-09-27T09:00:40.184Z,99970.13
2022-09-27T09:03:20.288Z,99961.19
2022-09-27T09:06:04.388Z,99964.00
2022-09-27T09:08:35.623Z,99969.16
2022-09-27T09:11:32.422Z,99958.09
2022-09-27T09:14:17.979Z,99954.78
2022-09-27T09:16:52.770Z,99961.56
2022-09-27T09:19:31.791Z,99960.25
2022-09-27T09:22:18.671Z,99956.97
2022-09-27T09:24:45.589Z,99956.78
2022-09-27T09:27:25.648Z,99947.88
2022-09-27T09:30:02.194Z,99946.56
2022-09-27T09:32:31.677Z,99947.25
2022-09-27T09:35:06.910Z,99946.41
2022-09-27T09:37:33.464Z,99948.38
2022-09-27T09:40:08.233Z,99945.09
2022-09-27T09:42:39.101Z,99934.53
2022-09-27T09:45:17.404Z,99948.91
2022-09-27T09:47:46.734Z,99940.00
2022-09-27T09:50:13.302Z,99942.31
2022-09-27T09:52:42.669Z,99943.81
2022-09-27T09:55:20.563Z,99936.06
2022-09-27T09:57:56.278Z,99935.22
2022-09-27T10:00:22.930Z,99940.84
2022-09-27T10:02:51.383Z,99929.13
2022-09-27T10:05:28.180Z,99931.13
2022-09-27T10:07:58.395Z,99922.19
2022-09-27T10:10:25.088Z,99927.31
2022-09-27T10:12:52.320Z,99922.06
2022-09-27T10:15:20.782Z,99915.28
2022-09-27T10:17:52.386Z,99922.38
2022-09-27T10:20:24.882Z,99911.47
2022-09-27T10:22:55.656Z,99900.59
2022-09-27T10:25:22.346Z,99899.44
2022-09-27T10:27:50.783Z,99894.16
2022-09-27T10:30:32.274Z,99894.47
2022-09-27T10:33:00.835Z,99891.69
2022-09-27T10:35:30.564Z,99886.41
2022-09-27T10:38:13.766Z,99881.97
2022-09-27T10:40:40.363Z,99887.91
2022-09-27T10:43:29.395Z,99881.47
2022-09-27T10:46:09.409Z,99891.84
2022-09-27T10:48:37.899Z,99876.19
2022-09-27T10:51:05.610Z,99877.34
2022-09-27T10:53:34.111Z,99881.31
2022-09-27T10:56:01.391Z,99874.03
2022-09-27T10:58:30.893Z,99860.38
2022-09-27T11:01:03.687Z,99870.41
2022-09-27T11:03:31.701Z,99869.91
2022-09-27T11:05:59.811Z,99854.22
2022-09-27T11:08:33.396Z,99862.97
2022-09-27T11:11:01.452Z,99860.16
2022-09-27T11:13:33.259Z,99883.78
2022-09-27T11:15:59.903Z,99886.91
2022-09-27T11:18:45.139Z,99890.03
2022-09-27T11:21:18.872Z,99879.63
2022-09-27T11:24:08.292Z,99878.81
2022-09-27T11:26:54.762Z,99875.53
2022-09-27T11:29:46.633Z,99862.34
2022-09-27T11:32:36.653Z,99859.84
2022-09-27T11:35:12.219Z,99861.50
2022-09-27T11:37:54.246Z,99861.50
2022-09-27T11:41:00.627Z,99862.66
2022-09-27T11:43:34.465Z,99853.41
2022-09-27T11:46:25.325Z,99848.13
2022-09-27T11:49:20.558Z,99855.72
2022-09-27T11:52:22.672Z,99854.09
2022-09-27T11:55:10.901Z,99850.47
2022-09-27T11:57:46.780Z,99849.63
2022-09-27T12:00:26.815Z,99850.47
2022-09-27T12:03:05.609Z,99831.97
2022-09-27T12:05:32.268Z,99839.56
2022-09-27T12:08:16.164Z,99833.13
2022-09-27T12:10:46.720Z,99826.69
2022-09-27T12:13:14.787Z,99820.44
2022-09-27T12:15:43.456Z,99814.00
2022-09-27T12:18:20.431Z,99815.97
2022-09-27T12:20:47.024Z,99818.47
2022-09-27T12:23:46.338Z,99814.84
2022-09-27T12:26:15.892Z,99814.00
2022-09-27T12:28:42.446Z,99806.75
2022-09-27T12:31:31.774Z,99809.22
2022-09-27T12:34:09.752Z,99803.44
2022-09-27T12:36:44.735Z,99801.81
2022-09-27T12:39:13.484Z,99795.84
2022-09-27T12:41:41.446Z,99797.66
2022-09-27T12:44:10.281Z,99796.03
2022-09-27T12:46:46.019Z,99800.47
2022-09-27T12:49:35.362Z,99799.66
2022-09-27T12:52:13.185Z,99795.22
2022-09-27T12:55:03.350Z,99805.63
2022-09-27T12:57:32.993Z,99804.63
2022-09-27T13:00:02.444Z,99808.22
2022-09-27T13:03:14.014Z,99810.88
2022-09-27T13:05:58.081Z,99807.75
2022-09-27T13:08:27.791Z,99816.84
2022-09-27T13:11:13.018Z,99815.19
2022-09-27T13:13:40.177Z,99816.34
2022-09-27T13:16:07.901Z,99812.38
2022-09-27T13:18:38.363Z,99809.44
2022-09-27T13:21:06.540Z,99804.16
2022-09-27T13:23:34.063Z,99795.75
2022-09-27T13:26:01.164Z,99792.44
2022-09-27T13:28:31.980Z,99789.97
2022-09-27T13:31:00.755Z,99788.78
2022-09-27T13:33:47.005Z,99783.53
2022-09-27T13:36:16.503Z,99780.75
2022-09-27T13:39:01.454Z,99774.63
2022-09-27T13:41:53.546Z,99763.41
2022-09-27T13:44:39.107Z,99757.81
2022-09-27T13:47:27.507Z,99753.34
2022-09-27T13:49:58.731Z,99754.84
2022-09-27T13:52:36.595Z,99744.78
2022-09-27T13:55:06.381Z,99745.63
2022-09-27T13:57:44.073Z,99744.78
2022-09-27T14:00:17.624Z,99744.78
2022-09-27T14:02:55.241Z,99752.38
2022-09-27T14:05:28.331Z,99756.66
2022-09-27T14:07:55.694Z,99757.16
2022-09-27T14:10:23.413Z,99752.72
2022-09-27T14:12:52.525Z,99750.06
2022-09-27T14:15:26.536Z,99746.44
2022-09-27T14:17:53.587Z,99746.09
2022-09-27T14:20:36.067Z,99729.59
2022-09-27T14:23:03.571Z,99734.38
2022-09-27T14:25:30.390Z,99737.19
2022-09-27T14:27:58.703Z,99734.75
2022-09-27T14:30:28.185Z,99733.91
2022-09-27T14:32:55.868Z,99733.09
2022-09-27T14:35:42.572Z,99729.47
2022-09-27T14:38:36.052Z,99723.84
2022-09-27T14:40:58.317Z,99712.63
2022-09-27T14:43:25.823Z,99719.06
2022-09-27T14:45:55.781Z,99715.91
2022-09-27T14:48:22.436Z,99715.13
2022-09-27T14:51:06.196Z,99715.13
2022-09-27T14:53:34.826Z,99716.28
2022-09-27T14:56:02.544Z,99710.66
2022-09-27T14:58:46.720Z,99701.91
2022-09-27T15:01:18.360Z,99703.09
2022-09-27T15:03:45.465Z,99710.16
2022-09-27T15:06:12.376Z,99716.13
2022-09-27T15:08:39.428Z,99711.66
2022-09-27T15:11:07.791Z,99731.28
2022-09-27T15:13:35.263Z,99744.47
2022-09-27T15:16:02.111Z,99740.34
2022-09-27T15:18:33.323Z,99738.72
2022-09-27T15:21:00.302Z,99739.03
2022-09-27T15:23:34.846Z,99741.53
2022-09-27T15:26:08.201Z,99737.06
2022-09-27T15:28:36.444Z,99729.47
2022-09-27T15:31:03.228Z,99737.88
2022-09-27T15:33:34.357Z,99733.44
2022-09-27T15:36:04.713Z,99725.34
2022-09-27T15:38:32.775Z,99720.25
2022-09-27T15:41:06.834Z,99722.53
2022-09-27T15:43:36.133Z,99724.53
2022-09-27T15:46:04.968Z,99724.06
2022-09-27T15:48:32.920Z,99722.41
2022-09-27T15:51:00.055Z,99717.13
2022-09-27T15:53:35.819Z,99721.56
2022-09-27T15:56:08.932Z,99715.97
2022-09-27T15:58:36.044Z,99699.50
2022-09-27T16:01:03.664Z,99706.72
2022-09-27T16:03:30.277Z,99704.28
2022-09-27T16:05:57.209Z,99703.63
2022-09-27T16:08:24.537Z,99714.84
2022-09-27T16:10:52.212Z,99707.59
2022-09-27T16:13:18.932Z,99707.59
2022-09-27T16:15:46.011Z,99709.09
2022-09-27T16:18:13.659Z,99701.00
2022-09-27T16:20:40.398Z,99705.78
2022-09-27T16:23:07.246Z,99703.28
2022-09-27T16:25:33.877Z,99705.78
2022-09-27T16:28:01.398Z,99703.47
2022-09-27T16:30:28.450Z,99707.91
2022-09-27T16:32:55.756Z,99704.13
2022-09-27T16:35:23.827Z,99711.84
2022-09-27T16:37:50.543Z,99706.72
2022-09-27T16:40:18.788Z,99712.13
2022-09-27T16:42:45.772Z,99703.91
2022-09-27T16:45:16.884Z,99712.09
2022-09-27T16:47:45.919Z,99705.50
2022-09-27T16:50:32.437Z,99712.91
2022-09-27T16:53:00.529Z,99718.00
2022-09-27T16:55:28.954Z,99704.63
2022-09-27T16:57:58.203Z,99704.78
2022-09-27T17:00:25.408Z,99709.06
2022-09-27T17:02:53.150Z,99699.28
2022-09-27T17:05:28.488Z,99702.75
2022-09-27T17:07:55.365Z,99704.53
2022-09-27T17:10:22.578Z,99706.31
2022-09-27T17:12:49.262Z,99704.47
2022-09-27T17:15:16.678Z,99701.03
2022-09-27T17:17:45.381Z,99694.84
2022-09-27T17:20:12.950Z,99696.66
2022-09-27T17:22:39.579Z,99701.56
2022-09-27T17:25:06.526Z,99697.75
2022-09-27T17:27:33.280Z,99693.78
2022-09-27T17:29:59.850Z,99686.69
2022-09-27T17:32:26.493Z,99688.31
2022-09-27T17:35:08.320Z,99691.59
2022-09-27T17:37:34.988Z,99682.50
2022-09-27T17:40:01.900Z,99686.13
2022-09-27T17:42:29.086Z,99686.25
2022-09-27T17:45:04.320Z,99683.13
2022-09-27T17:47:49.564Z,99695.16
2022-09-27T17:50:25.276Z,99696.00
2022-09-27T17:52:52.348Z,99694.84
2022-09-27T17:55:19.354Z,99702.56
2022-09-27T17:57:49.350Z,99698.59
2022-09-27T18:00:16.431Z,99696.63
2022-09-27T18:02:45.587Z,99690.66
2022-09-27T18:05:12.444Z,99697.91
2022-09-27T18:07:39.318Z,99693.47
2022-09-27T18:10:06.238Z,99705.50
2022-09-27T18:12:46.816Z,99709.97
2022-09-27T18:15:13.441Z,99702.69
2022-09-27T18:17:40.283Z,99707.16
2022-09-27T18:20:07.255Z,99706.00
2022-09-27T18:22:33.824Z,99712.78
2022-09-27T18:25:05.889Z,99706.00
2022-09-27T18:27:33.019Z,99703.53
2022-09-27T18:30:00.317Z,99704.34
2022-09-27T18:32:26.958Z,99707.16
2022-09-27T18:35:16.802Z,99704.69
2022-09-27T18:37:47.131Z,99709.47
2022-09-27T18:40:14.722Z,99706.00
2022-09-27T18:42:41.345Z,99703.53
2022-09-27T18:45:08.576Z,99702.69
2022-09-27T18:47:35.498Z,99712.66
2022-09-27T18:50:02.239Z,99705.03
2022-09-27T18:52:28.809Z,99704.56
2022-09-27T18:55:05.648Z,99708.38
2022-09-27T18:57:34.177Z,99698.66
2022-09-27T19:00:04.463Z,99707.88
2022-09-27T19:02:32.454Z,99713.50
2022-09-27T19:05:04.353Z,99711.19
2022-09-27T19:07:31.022Z,99707.09
2022-09-27T19:09:57.644Z,99716.66
2022-09-27T19:12:24.226Z,99703.78
2022-09-27T19:15:07.558Z,99715.34
2022-09-27T19:17:34.180Z,99703.28
2022-09-27T19:20:00.821Z,99715.72
2022-09-27T19:22:28.949Z,99707.28
2022-09-27T19:25:04.089Z,99711.94
2022-09-27T19:27:31.201Z,99704.69
2022-09-27T19:29:59.352Z,99712.28
2022-09-27T19:32:26.431Z,99709.78
2022-09-27T19:35:10.054Z,99709.34
2022-09-27T19:37:37.163Z,99716.09
2022-09-27T19:40:11.683Z,99716.44
2022-09-27T19:42:41.919Z,99726.81
2022-09-27T19:45:11.665Z,99727.19
2022-09-27T19:47:38.804Z,99731.16
2022-09-27T19:50:05.922Z,99734.28
2022-09-27T19:52:33.332Z,99734.97
2022-09-27T19:55:07.754Z,99739.06
2022-09-27T19:57:34.916Z,99740.72
2022-09-27T20:00:01.971Z,99742.38
2022-09-27T20:02:29.026Z,99743.19
2022-09-27T20:05:03.595Z,99741.50
2022-09-27T20:07:31.549Z,99735.19
2022-09-27T20:09:58.629Z,99738.81
2022-09-27T20:12:25.828Z,99737.22
2022-09-27T20:15:01.945Z,99734.72
2022-09-27T20:17:31.905Z,99727.81
2022-09-27T20:19:59.137Z,99730.63
2022-09-27T20:22:26.271Z,99738.56
2022-09-27T20:25:07.531Z,99731.78
2022-09-27T20:27:34.441Z,99732.09
2022-09-27T20:30:01.381Z,99742.41
2022-09-27T20:32:28.877Z,99740.34
2022-09-27T20:35:02.722Z,99747.63
2022-09-27T20:37:31.273Z,99751.41
2022-09-27T20:39:58.031Z,99743.63
2022-09-27T20:42:24.679Z,99744.47
2022-09-27T20:45:02.926Z,99740.81
2022-09-27T20:47:29.632Z,99737.88
2022-09-27T20:49:56.235Z,99743.03
2022-09-27T20:52:22.865Z,99737.25
2022-09-27T20:54:57.888Z,99737.63
2022-09-27T20:57:46.254Z,99739.94
2022-09-27T21:00:13.277Z,99733.31
2022-09-27T21:02:39.879Z,99731.34
2022-09-27T21:05:06.799Z,99728.03
2022-09-27T21:07:33.455Z,99736.00
2022-09-27T21:10:00.021Z,99735.19
2022-09-27T21:12:43.916Z,99725.94
2022-09-27T21:15:15.289Z,99716.69
2022-09-27T21:17:42.356Z,99715.03
2022-09-27T21:20:10.878Z,99718.19
2022-09-27T21:22:38.686Z,99716.53
2022-09-27T21:25:06.214Z,99707.63
2022-09-27T21:27:32.973Z,99714.44
2022-09-27T21:30:00.345Z,99713.09
2022-09-27T21:32:27.196Z,99719.09
2022-09-27T21:35:07.535Z,99710.16
2022-09-27T21:37:34.119Z,99708.88
2022-09-27T21:40:06.612Z,99716.47
2022-09-27T21:42:33.199Z,99707.56
2022-09-27T21:45:01.179Z,99718.31
2022-09-27T21:47:31.039Z,99712.22
2022-09-27T21:49:57.637Z,99708.44
2022-09-27T21:52:24.288Z,99717.19
2022-09-27T21:54:58.177Z,99710.28
2022-09-27T21:57:24.738Z,99716.22
2022-09-27T21:59:51.737Z,99726.63
2022-09-27T22:02:19.424Z,99719.72
2022-09-27T22:04:46.183Z,99718.41
2022-09-27T22:07:12.798Z,99720.75
2022-09-27T22:09:39.560Z,99719.91
2022-09-27T22:12:06.470Z,99713.03
2022-09-27T22:14:34.509Z,99721.44
2022-09-27T22:17:01.143Z,99717.31
2022-09-27T22:19:27.730Z,99713.22
2022-09-27T22:21:54.307Z,99712.38
2022-09-27T22:24:20.969Z,99722.78
2022-09-27T22:26:48.920Z,99721.47
2022-09-27T22:29:15.760Z,99721.81
2022-09-27T22:31:42.451Z,99714.56
2022-09-27T22:34:17.052Z,99726.09
2022-09-27T22:36:43.900Z,99725.63
2022-09-27T22:39:10.595Z,99722.34
2022-09-27T22:41:43.131Z,99724.31
2022-09-27T22:44:13.183Z,99724.66
2022-09-27T22:46:43.178Z,99728.63
2022-09-27T22:49:10.061Z,99727.31
2022-09-27T22:51:36.689Z,99724.84
2022-09-27T22:54:03.437Z,99731.63
2022-09-27T22:56:30.055Z,99735.56
2022-09-27T22:58:56.646Z,99725.88
2022-09-27T23:01:24.348Z,99736.25
2022-09-27T23:03:52.157Z,99725.38
2022-09-27T23:06:19.727Z,99729.66
2022-09-27T23:08:47.608Z,99730.50
2022-09-27T23:11:19.215Z,99732.13
2022-09-27T23:13:46.623Z,99723.22
2022-09-27T23:16:14.782Z,99728.31
2022-09-27T23:18:42.327Z,99734.28
2022-09-27T23:21:10.685Z,99727.84
2022-09-27T23:23:40.807Z,99727.03
2022-09-27T23:26:08.417Z,99726.19
2022-09-27T23:28:35.446Z,99729.34
2022-09-27T23:31:22.220Z,99726.88
2022-09-27T23:33:49.204Z,99728.88
2022-09-27T23:36:17.377Z,99732.81
2022-09-27T23:38:45.842Z,99716.31
2022-09-27T23:41:13.399Z,99722.28
2022-09-27T23:43:40.039Z,99723.44
2022-09-27T23:46:07.343Z,99723.75
2022-09-27T23:48:34.873Z,99731.03
2022-09-27T23:51:01.862Z,99719.31
2022-09-27T23:53:28.489Z,99734.50
2022-09-27T23:56:02.857Z,99735.34
2022-09-27T23:58:32.526Z,99731.19
